sensor_id;sensor_type;location;lat;lon;timestamp;P1;durP1;ratioP1;P2;durP2;ratioP2
4122;SDS011;2075;51.062;6.920;2022-12-01T00:01:17;27.40;;;12.20;;
4122;SDS011;2075;51.062;6.920;2022-12-01T00:04:02;24.77;;;11.90;;
4122;SDS011;2075;51.062;6.920;2022-12-01T00:06:48;24.23;;;12.00;;
4122;SDS011;2075;51.062;6.920;2022-12-01T00:09:33;23.37;;;11.37;;
4122;SDS011;2075;51.062;6.920;2022-12-01T00:12:36;21.70;;;11.47;;
4122;SDS011;2075;51.062;6.920;2022-12-01T00:15:28;24.10;;;11.37;;
4122;SDS011;2075;51.062;6.920;2022-12-01T00:18:14;24.37;;;12.50;;
4122;SDS011;2075;51.062;6.920;2022-12-01T00:21:00;22.17;;;11.40;;
4122;SDS011;2075;51.062;6.920;2022-12-01T00:23:45;26.80;;;12.13;;
4122;SDS011;2075;51.062;6.920;2022-12-01T00:26:32;27.47;;;13.07;;
4122;SDS011;2075;51.062;6.920;2022-12-01T00:29:17;33.67;;;13.20;;
4122;SDS011;2075;51.062;6.920;2022-12-01T00:32:04;23.10;;;12.90;;
4122;SDS011;2075;51.062;6.920;2022-12-01T00:34:50;31.73;;;13.47;;
4122;SDS011;2075;51.062;6.920;2022-12-01T00:37:35;29.30;;;13.33;;
4122;SDS011;2075;51.062;6.920;2022-12-01T00:40:21;27.03;;;13.03;;
4122;SDS011;2075;51.062;6.920;2022-12-01T00:43:06;36.17;;;16.00;;
4122;SDS011;2075;51.062;6.920;2022-12-01T00:45:51;35.30;;;15.30;;
4122;SDS011;2075;51.062;6.920;2022-12-01T00:48:40;38.17;;;15.80;;
4122;SDS011;2075;51.062;6.920;2022-12-01T00:51:26;37.13;;;15.23;;
4122;SDS011;2075;51.062;6.920;2022-12-01T00:54:11;45.07;;;16.33;;
4122;SDS011;2075;51.062;6.920;2022-12-01T00:56:57;35.87;;;15.90;;
4122;SDS011;2075;51.062;6.920;2022-12-01T00:59:42;41.27;;;17.37;;
4122;SDS011;2075;51.062;6.920;2022-12-01T01:02:28;38.87;;;16.60;;
4122;SDS011;2075;51.062;6.920;2022-12-01T01:05:14;40.90;;;17.07;;
4122;SDS011;2075;51.062;6.920;2022-12-01T01:08:00;43.90;;;17.30;;
4122;SDS011;2075;51.062;6.920;2022-12-01T01:10:46;42.63;;;17.70;;
4122;SDS011;2075;51.062;6.920;2022-12-01T01:13:32;42.80;;;18.10;;
4122;SDS011;2075;51.062;6.920;2022-12-01T01:16:19;37.03;;;16.00;;
4122;SDS011;2075;51.062;6.920;2022-12-01T01:19:05;43.63;;;17.80;;
4122;SDS011;2075;51.062;6.920;2022-12-01T01:21:52;39.30;;;16.40;;
4122;SDS011;2075;51.062;6.920;2022-12-01T01:24:37;41.90;;;18.43;;
4122;SDS011;2075;51.062;6.920;2022-12-01T01:27:23;41.20;;;17.23;;
4122;SDS011;2075;51.062;6.920;2022-12-01T01:30:08;41.80;;;17.43;;
4122;SDS011;2075;51.062;6.920;2022-12-01T01:32:54;50.43;;;18.77;;
4122;SDS011;2075;51.062;6.920;2022-12-01T01:35:39;38.10;;;18.20;;
4122;SDS011;2075;51.062;6.920;2022-12-01T01:38:26;45.50;;;18.77;;
4122;SDS011;2075;51.062;6.920;2022-12-01T01:41:12;44.90;;;17.27;;
4122;SDS011;2075;51.062;6.920;2022-12-01T01:43:58;37.90;;;16.10;;
4122;SDS011;2075;51.062;6.920;2022-12-01T01:46:45;42.80;;;17.50;;
4122;SDS011;2075;51.062;6.920;2022-12-01T01:49:31;38.07;;;17.03;;
4122;SDS011;2075;51.062;6.920;2022-12-01T01:52:16;40.43;;;18.00;;
4122;SDS011;2075;51.062;6.920;2022-12-01T01:55:03;44.57;;;18.33;;
4122;SDS011;2075;51.062;6.920;2022-12-01T01:57:50;36.57;;;16.07;;
4122;SDS011;2075;51.062;6.920;2022-12-01T02:00:36;39.17;;;17.50;;
4122;SDS011;2075;51.062;6.920;2022-12-01T02:03:23;42.70;;;16.87;;
4122;SDS011;2075;51.062;6.920;2022-12-01T02:06:09;44.17;;;17.57;;
4122;SDS011;2075;51.062;6.920;2022-12-01T02:08:56;37.83;;;17.50;;
4122;SDS011;2075;51.062;6.920;2022-12-01T02:14:56;39.57;;;18.50;;
4122;SDS011;2075;51.062;6.920;2022-12-01T02:18:06;40.63;;;19.40;;
4122;SDS011;2075;51.062;6.920;2022-12-01T02:21:10;42.57;;;17.43;;
4122;SDS011;2075;51.062;6.920;2022-12-01T02:27:33;34.37;;;16.53;;
4122;SDS011;2075;51.062;6.920;2022-12-01T02:30:38;41.63;;;18.30;;
4122;SDS011;2075;51.062;6.920;2022-12-01T02:33:28;41.83;;;18.10;;
4122;SDS011;2075;51.062;6.920;2022-12-01T02:36:19;42.10;;;18.27;;
4122;SDS011;2075;51.062;6.920;2022-12-01T02:39:13;48.90;;;19.37;;
4122;SDS011;2075;51.062;6.920;2022-12-01T02:42:06;42.90;;;18.13;;
4122;SDS011;2075;51.062;6.920;2022-12-01T02:45:25;45.80;;;18.60;;
4122;SDS011;2075;51.062;6.920;2022-12-01T02:48:19;53.67;;;19.93;;
4122;SDS011;2075;51.062;6.920;2022-12-01T02:51:10;42.40;;;18.10;;
4122;SDS011;2075;51.062;6.920;2022-12-01T02:53:59;47.37;;;20.27;;
4122;SDS011;2075;51.062;6.920;2022-12-01T02:56:49;47.97;;;21.27;;
4122;SDS011;2075;51.062;6.920;2022-12-01T02:59:35;53.80;;;20.27;;
4122;SDS011;2075;51.062;6.920;2022-12-01T03:02:22;45.10;;;19.43;;
4122;SDS011;2075;51.062;6.920;2022-12-01T03:05:19;55.03;;;20.40;;
4122;SDS011;2075;51.062;6.920;2022-12-01T03:08:15;55.20;;;19.57;;
4122;SDS011;2075;51.062;6.920;2022-12-01T03:11:10;64.03;;;22.70;;
4122;SDS011;2075;51.062;6.920;2022-12-01T03:14:12;52.30;;;19.87;;
4122;SDS011;2075;51.062;6.920;2022-12-01T03:17:07;59.83;;;22.07;;
4122;SDS011;2075;51.062;6.920;2022-12-01T03:19:59;54.20;;;20.47;;
4122;SDS011;2075;51.062;6.920;2022-12-01T03:22:53;56.20;;;21.07;;
4122;SDS011;2075;51.062;6.920;2022-12-01T03:25:44;61.53;;;22.80;;
4122;SDS011;2075;51.062;6.920;2022-12-01T03:28:35;66.23;;;24.60;;
4122;SDS011;2075;51.062;6.920;2022-12-01T03:31:24;61.10;;;21.10;;
4122;SDS011;2075;51.062;6.920;2022-12-01T03:34:16;61.87;;;20.30;;
4122;SDS011;2075;51.062;6.920;2022-12-01T03:37:08;57.57;;;22.57;;
4122;SDS011;2075;51.062;6.920;2022-12-01T03:40:00;54.70;;;21.60;;
4122;SDS011;2075;51.062;6.920;2022-12-01T03:42:51;69.70;;;22.67;;
4122;SDS011;2075;51.062;6.920;2022-12-01T03:45:45;61.70;;;22.20;;
4122;SDS011;2075;51.062;6.920;2022-12-01T03:48:35;89.67;;;22.57;;
4122;SDS011;2075;51.062;6.920;2022-12-01T03:51:24;56.80;;;22.20;;
4122;SDS011;2075;51.062;6.920;2022-12-01T03:54:16;73.67;;;23.27;;
4122;SDS011;2075;51.062;6.920;2022-12-01T03:57:07;65.40;;;22.13;;
4122;SDS011;2075;51.062;6.920;2022-12-01T03:59:57;63.60;;;22.80;;
4122;SDS011;2075;51.062;6.920;2022-12-01T04:02:43;68.73;;;22.40;;
4122;SDS011;2075;51.062;6.920;2022-12-01T04:05:29;68.90;;;22.67;;
4122;SDS011;2075;51.062;6.920;2022-12-01T04:08:16;54.07;;;20.70;;
4122;SDS011;2075;51.062;6.920;2022-12-01T04:11:02;60.60;;;22.37;;
4122;SDS011;2075;51.062;6.920;2022-12-01T04:14:09;72.27;;;21.90;;
4122;SDS011;2075;51.062;6.920;2022-12-01T04:16:53;58.80;;;21.60;;
4122;SDS011;2075;51.062;6.920;2022-12-01T04:19:39;66.87;;;24.27;;
4122;SDS011;2075;51.062;6.920;2022-12-01T04:22:24;52.47;;;21.40;;
4122;SDS011;2075;51.062;6.920;2022-12-01T04:25:10;63.43;;;21.13;;
4122;SDS011;2075;51.062;6.920;2022-12-01T04:27:56;66.97;;;22.50;;
4122;SDS011;2075;51.062;6.920;2022-12-01T04:30:42;63.27;;;23.80;;
4122;SDS011;2075;51.062;6.920;2022-12-01T04:33:28;66.57;;;23.07;;
4122;SDS011;2075;51.062;6.920;2022-12-01T04:36:13;61.43;;;21.87;;
4122;SDS011;2075;51.062;6.920;2022-12-01T04:38:59;62.47;;;20.80;;
4122;SDS011;2075;51.062;6.920;2022-12-01T04:41:45;69.37;;;22.10;;
4122;SDS011;2075;51.062;6.920;2022-12-01T04:44:30;59.40;;;21.80;;
4122;SDS011;2075;51.062;6.920;2022-12-01T04:47:17;67.73;;;23.40;;
4122;SDS011;2075;51.062;6.920;2022-12-01T04:50:02;68.07;;;23.73;;
4122;SDS011;2075;51.062;6.920;2022-12-01T04:52:48;63.90;;;24.03;;
4122;SDS011;2075;51.062;6.920;2022-12-01T04:55:35;65.87;;;23.00;;
4122;SDS011;2075;51.062;6.920;2022-12-01T04:58:21;65.80;;;23.43;;
4122;SDS011;2075;51.062;6.920;2022-12-01T05:01:08;70.73;;;22.23;;
4122;SDS011;2075;51.062;6.920;2022-12-01T05:03:56;70.53;;;23.27;;
4122;SDS011;2075;51.062;6.920;2022-12-01T05:06:42;66.43;;;23.73;;
4122;SDS011;2075;51.062;6.920;2022-12-01T05:09:27;67.83;;;23.97;;
4122;SDS011;2075;51.062;6.920;2022-12-01T05:12:13;58.73;;;22.67;;
4122;SDS011;2075;51.062;6.920;2022-12-01T05:14:59;65.57;;;22.20;;
4122;SDS011;2075;51.062;6.920;2022-12-01T05:17:45;71.60;;;24.90;;
4122;SDS011;2075;51.062;6.920;2022-12-01T05:20:32;60.83;;;22.33;;
4122;SDS011;2075;51.062;6.920;2022-12-01T05:23:36;54.83;;;22.33;;
4122;SDS011;2075;51.062;6.920;2022-12-01T05:26:22;67.03;;;24.07;;
4122;SDS011;2075;51.062;6.920;2022-12-01T05:29:08;55.57;;;21.80;;
4122;SDS011;2075;51.062;6.920;2022-12-01T05:31:54;53.80;;;20.50;;
4122;SDS011;2075;51.062;6.920;2022-12-01T05:34:39;56.53;;;20.63;;
4122;SDS011;2075;51.062;6.920;2022-12-01T05:37:26;58.53;;;22.07;;
4122;SDS011;2075;51.062;6.920;2022-12-01T05:40:15;58.10;;;20.93;;
4122;SDS011;2075;51.062;6.920;2022-12-01T05:43:01;64.07;;;22.37;;
4122;SDS011;2075;51.062;6.920;2022-12-01T05:45:47;57.93;;;22.00;;
4122;SDS011;2075;51.062;6.920;2022-12-01T05:48:33;49.27;;;19.23;;
4122;SDS011;2075;51.062;6.920;2022-12-01T05:51:19;55.00;;;21.57;;
4122;SDS011;2075;51.062;6.920;2022-12-01T05:54:05;57.37;;;19.90;;
4122;SDS011;2075;51.062;6.920;2022-12-01T05:56:51;49.60;;;19.00;;
4122;SDS011;2075;51.062;6.920;2022-12-01T05:59:36;56.77;;;19.60;;
4122;SDS011;2075;51.062;6.920;2022-12-01T06:02:22;59.30;;;21.40;;
4122;SDS011;2075;51.062;6.920;2022-12-01T06:05:09;48.37;;;18.70;;
4122;SDS011;2075;51.062;6.920;2022-12-01T06:07:54;47.00;;;18.20;;
4122;SDS011;2075;51.062;6.920;2022-12-01T06:10:42;45.40;;;17.47;;
4122;SDS011;2075;51.062;6.920;2022-12-01T06:13:28;51.87;;;17.53;;
4122;SDS011;2075;51.062;6.920;2022-12-01T06:16:14;50.60;;;18.00;;
4122;SDS011;2075;51.062;6.920;2022-12-01T06:18:59;42.50;;;17.70;;
4122;SDS011;2075;51.062;6.920;2022-12-01T06:21:44;50.87;;;18.27;;
4122;SDS011;2075;51.062;6.920;2022-12-01T06:24:30;50.07;;;18.57;;
4122;SDS011;2075;51.062;6.920;2022-12-01T06:27:16;43.87;;;18.60;;
4122;SDS011;2075;51.062;6.920;2022-12-01T06:30:02;51.77;;;18.57;;
4122;SDS011;2075;51.062;6.920;2022-12-01T06:32:49;49.80;;;17.50;;
4122;SDS011;2075;51.062;6.920;2022-12-01T06:35:34;54.27;;;19.00;;
4122;SDS011;2075;51.062;6.920;2022-12-01T06:38:19;54.80;;;19.63;;
4122;SDS011;2075;51.062;6.920;2022-12-01T06:41:05;48.07;;;20.10;;
4122;SDS011;2075;51.062;6.920;2022-12-01T06:43:51;46.97;;;19.80;;
4122;SDS011;2075;51.062;6.920;2022-12-01T06:46:37;55.70;;;19.70;;
4122;SDS011;2075;51.062;6.920;2022-12-01T06:49:23;58.07;;;19.47;;
4122;SDS011;2075;51.062;6.920;2022-12-01T06:52:08;40.73;;;16.60;;
4122;SDS011;2075;51.062;6.920;2022-12-01T06:54:54;53.90;;;19.20;;
4122;SDS011;2075;51.062;6.920;2022-12-01T06:57:39;54.17;;;18.57;;
4122;SDS011;2075;51.062;6.920;2022-12-01T07:00:27;47.70;;;17.27;;
4122;SDS011;2075;51.062;6.920;2022-12-01T07:03:13;41.13;;;17.00;;
4122;SDS011;2075;51.062;6.920;2022-12-01T07:05:58;41.03;;;17.20;;
4122;SDS011;2075;51.062;6.920;2022-12-01T07:08:45;46.70;;;18.33;;
4122;SDS011;2075;51.062;6.920;2022-12-01T07:11:30;43.80;;;17.80;;
4122;SDS011;2075;51.062;6.920;2022-12-01T07:14:21;45.67;;;18.23;;
4122;SDS011;2075;51.062;6.920;2022-12-01T07:17:10;43.50;;;17.67;;
4122;SDS011;2075;51.062;6.920;2022-12-01T07:19:56;41.60;;;17.70;;
4122;SDS011;2075;51.062;6.920;2022-12-01T07:22:41;39.10;;;17.53;;
4122;SDS011;2075;51.062;6.920;2022-12-01T07:25:27;42.93;;;17.43;;
4122;SDS011;2075;51.062;6.920;2022-12-01T07:28:12;48.17;;;17.77;;
4122;SDS011;2075;51.062;6.920;2022-12-01T07:31:01;59.40;;;19.20;;
4122;SDS011;2075;51.062;6.920;2022-12-01T07:33:49;48.43;;;18.10;;
4122;SDS011;2075;51.062;6.920;2022-12-01T07:36:35;44.23;;;18.50;;
4122;SDS011;2075;51.062;6.920;2022-12-01T07:39:21;58.70;;;17.97;;
4122;SDS011;2075;51.062;6.920;2022-12-01T07:42:06;47.83;;;16.67;;
4122;SDS011;2075;51.062;6.920;2022-12-01T07:44:52;48.27;;;18.13;;
4122;SDS011;2075;51.062;6.920;2022-12-01T07:47:38;44.03;;;17.80;;
4122;SDS011;2075;51.062;6.920;2022-12-01T07:50:24;51.50;;;19.53;;
4122;SDS011;2075;51.062;6.920;2022-12-01T07:53:10;48.97;;;18.80;;
4122;SDS011;2075;51.062;6.920;2022-12-01T07:55:57;48.87;;;17.60;;
4122;SDS011;2075;51.062;6.920;2022-12-01T07:58:42;42.03;;;17.63;;
4122;SDS011;2075;51.062;6.920;2022-12-01T08:01:28;37.47;;;16.83;;
4122;SDS011;2075;51.062;6.920;2022-12-01T08:04:14;46.50;;;16.90;;
4122;SDS011;2075;51.062;6.920;2022-12-01T08:07:01;36.70;;;15.77;;
4122;SDS011;2075;51.062;6.920;2022-12-01T08:09:47;43.70;;;16.60;;
4122;SDS011;2075;51.062;6.920;2022-12-01T08:12:33;38.53;;;16.20;;
4122;SDS011;2075;51.062;6.920;2022-12-01T08:15:18;42.83;;;16.33;;
4122;SDS011;2075;51.062;6.920;2022-12-01T08:18:04;41.60;;;16.07;;
4122;SDS011;2075;51.062;6.920;2022-12-01T08:20:49;33.73;;;14.13;;
4122;SDS011;2075;51.062;6.920;2022-12-01T08:23:36;34.10;;;15.80;;
4122;SDS011;2075;51.062;6.920;2022-12-01T08:26:22;36.20;;;16.23;;
4122;SDS011;2075;51.062;6.920;2022-12-01T08:29:09;36.73;;;15.47;;
4122;SDS011;2075;51.062;6.920;2022-12-01T08:31:55;49.50;;;16.13;;
4122;SDS011;2075;51.062;6.920;2022-12-01T08:34:41;42.70;;;15.73;;
4122;SDS011;2075;51.062;6.920;2022-12-01T08:37:26;52.30;;;16.77;;
4122;SDS011;2075;51.062;6.920;2022-12-01T08:40:14;40.73;;;16.10;;
4122;SDS011;2075;51.062;6.920;2022-12-01T08:42:59;35.53;;;14.87;;
4122;SDS011;2075;51.062;6.920;2022-12-01T08:45:45;33.87;;;15.83;;
4122;SDS011;2075;51.062;6.920;2022-12-01T08:48:31;35.10;;;15.10;;
4122;SDS011;2075;51.062;6.920;2022-12-01T08:51:17;38.20;;;13.20;;
4122;SDS011;2075;51.062;6.920;2022-12-01T08:54:03;42.03;;;15.80;;
4122;SDS011;2075;51.062;6.920;2022-12-01T08:56:50;37.40;;;14.83;;
4122;SDS011;2075;51.062;6.920;2022-12-01T08:59:35;40.47;;;15.57;;
4122;SDS011;2075;51.062;6.920;2022-12-01T09:02:21;33.00;;;14.90;;
4122;SDS011;2075;51.062;6.920;2022-12-01T09:05:07;42.77;;;16.97;;
4122;SDS011;2075;51.062;6.920;2022-12-01T09:07:52;37.80;;;14.50;;
4122;SDS011;2075;51.062;6.920;2022-12-01T09:10:52;35.67;;;17.70;;
4122;SDS011;2075;51.062;6.920;2022-12-01T09:13:38;34.80;;;15.13;;
4122;SDS011;2075;51.062;6.920;2022-12-01T09:16:25;38.47;;;16.43;;
4122;SDS011;2075;51.062;6.920;2022-12-01T09:19:11;35.67;;;15.13;;
4122;SDS011;2075;51.062;6.920;2022-12-01T09:21:56;27.30;;;12.97;;
4122;SDS011;2075;51.062;6.920;2022-12-01T09:24:42;36.10;;;14.13;;
4122;SDS011;2075;51.062;6.920;2022-12-01T09:27:28;31.90;;;14.37;;
4122;SDS011;2075;51.062;6.920;2022-12-01T09:30:15;32.50;;;13.93;;
4122;SDS011;2075;51.062;6.920;2022-12-01T09:33:01;31.27;;;14.50;;
4122;SDS011;2075;51.062;6.920;2022-12-01T09:35:47;32.30;;;12.77;;
4122;SDS011;2075;51.062;6.920;2022-12-01T09:38:33;28.47;;;13.33;;
4122;SDS011;2075;51.062;6.920;2022-12-01T09:41:20;26.93;;;12.57;;
4122;SDS011;2075;51.062;6.920;2022-12-01T09:44:11;38.97;;;13.90;;
4122;SDS011;2075;51.062;6.920;2022-12-01T09:47:07;27.00;;;14.00;;
4122;SDS011;2075;51.062;6.920;2022-12-01T09:49:58;34.60;;;15.17;;
4122;SDS011;2075;51.062;6.920;2022-12-01T09:52:47;35.20;;;14.57;;
4122;SDS011;2075;51.062;6.920;2022-12-01T09:55:35;34.40;;;15.70;;
4122;SDS011;2075;51.062;6.920;2022-12-01T09:58:23;33.93;;;14.93;;
4122;SDS011;2075;51.062;6.920;2022-12-01T10:01:13;30.30;;;14.50;;
4122;SDS011;2075;51.062;6.920;2022-12-01T10:04:03;37.00;;;16.07;;
4122;SDS011;2075;51.062;6.920;2022-12-01T10:06:55;34.33;;;15.33;;
4122;SDS011;2075;51.062;6.920;2022-12-01T10:09:46;41.90;;;14.87;;
4122;SDS011;2075;51.062;6.920;2022-12-01T10:12:39;36.80;;;15.20;;
4122;SDS011;2075;51.062;6.920;2022-12-01T10:15:31;34.03;;;15.47;;
4122;SDS011;2075;51.062;6.920;2022-12-01T10:18:27;36.90;;;16.67;;
4122;SDS011;2075;51.062;6.920;2022-12-01T10:21:25;38.50;;;15.00;;
4122;SDS011;2075;51.062;6.920;2022-12-01T10:24:26;41.73;;;17.07;;
4122;SDS011;2075;51.062;6.920;2022-12-01T10:27:27;34.17;;;16.40;;
4122;SDS011;2075;51.062;6.920;2022-12-01T10:30:21;35.93;;;15.70;;
4122;SDS011;2075;51.062;6.920;2022-12-01T10:33:11;30.30;;;15.10;;
4122;SDS011;2075;51.062;6.920;2022-12-01T10:36:06;33.70;;;16.00;;
4122;SDS011;2075;51.062;6.920;2022-12-01T10:38:54;31.53;;;15.80;;
4122;SDS011;2075;51.062;6.920;2022-12-01T10:41:39;30.03;;;14.83;;
4122;SDS011;2075;51.062;6.920;2022-12-01T10:44:25;42.60;;;16.10;;
4122;SDS011;2075;51.062;6.920;2022-12-01T10:47:16;35.40;;;15.80;;
4122;SDS011;2075;51.062;6.920;2022-12-01T10:50:04;31.23;;;14.43;;
4122;SDS011;2075;51.062;6.920;2022-12-01T10:52:50;35.63;;;16.10;;
4122;SDS011;2075;51.062;6.920;2022-12-01T10:55:38;28.93;;;13.03;;
4122;SDS011;2075;51.062;6.920;2022-12-01T10:58:24;35.50;;;15.70;;
4122;SDS011;2075;51.062;6.920;2022-12-01T11:01:14;26.77;;;14.23;;
4122;SDS011;2075;51.062;6.920;2022-12-01T11:04:04;27.53;;;13.50;;
4122;SDS011;2075;51.062;6.920;2022-12-01T11:06:51;28.40;;;14.07;;
4122;SDS011;2075;51.062;6.920;2022-12-01T11:09:37;28.87;;;13.67;;
4122;SDS011;2075;51.062;6.920;2022-12-01T11:12:24;27.80;;;13.50;;
4122;SDS011;2075;51.062;6.920;2022-12-01T11:15:17;33.00;;;15.50;;
4122;SDS011;2075;51.062;6.920;2022-12-01T11:18:08;29.20;;;14.03;;
4122;SDS011;2075;51.062;6.920;2022-12-01T11:21:08;33.93;;;15.10;;
4122;SDS011;2075;51.062;6.920;2022-12-01T11:23:56;37.20;;;14.30;;
4122;SDS011;2075;51.062;6.920;2022-12-01T11:26:41;27.57;;;12.97;;
4122;SDS011;2075;51.062;6.920;2022-12-01T11:29:30;28.63;;;13.80;;
4122;SDS011;2075;51.062;6.920;2022-12-01T11:32:20;30.70;;;14.00;;
4122;SDS011;2075;51.062;6.920;2022-12-01T11:35:15;30.33;;;12.87;;
4122;SDS011;2075;51.062;6.920;2022-12-01T11:38:04;31.53;;;13.40;;
4122;SDS011;2075;51.062;6.920;2022-12-01T11:40:51;30.00;;;13.93;;
4122;SDS011;2075;51.062;6.920;2022-12-01T11:43:39;28.30;;;13.10;;
4122;SDS011;2075;51.062;6.920;2022-12-01T11:46:29;28.53;;;13.47;;
4122;SDS011;2075;51.062;6.920;2022-12-01T11:49:18;28.60;;;12.60;;
4122;SDS011;2075;51.062;6.920;2022-12-01T11:52:12;31.03;;;14.17;;
4122;SDS011;2075;51.062;6.920;2022-12-01T11:55:04;32.30;;;13.30;;
4122;SDS011;2075;51.062;6.920;2022-12-01T11:58:04;32.17;;;14.23;;
4122;SDS011;2075;51.062;6.920;2022-12-01T12:00:53;33.33;;;14.63;;
4122;SDS011;2075;51.062;6.920;2022-12-01T12:03:44;33.00;;;13.90;;
4122;SDS011;2075;51.062;6.920;2022-12-01T12:06:41;33.63;;;14.77;;
4122;SDS011;2075;51.062;6.920;2022-12-01T12:09:38;31.87;;;15.00;;
4122;SDS011;2075;51.062;6.920;2022-12-01T12:12:44;25.83;;;13.53;;
4122;SDS011;2075;51.062;6.920;2022-12-01T12:15:43;35.07;;;15.40;;
4122;SDS011;2075;51.062;6.920;2022-12-01T12:21:58;36.67;;;17.50;;
4122;SDS011;2075;51.062;6.920;2022-12-01T12:24:59;37.37;;;17.10;;
4122;SDS011;2075;51.062;6.920;2022-12-01T12:27:56;36.57;;;17.23;;
4122;SDS011;2075;51.062;6.920;2022-12-01T12:31:00;33.20;;;16.10;;
4122;SDS011;2075;51.062;6.920;2022-12-01T12:37:09;37.77;;;16.23;;
4122;SDS011;2075;51.062;6.920;2022-12-01T12:40:06;35.27;;;16.10;;
4122;SDS011;2075;51.062;6.920;2022-12-01T12:43:22;37.93;;;16.50;;
4122;SDS011;2075;51.062;6.920;2022-12-01T12:46:14;44.10;;;19.63;;
4122;SDS011;2075;51.062;6.920;2022-12-01T12:49:13;42.53;;;19.10;;
4122;SDS011;2075;51.062;6.920;2022-12-01T12:52:11;52.97;;;21.03;;
4122;SDS011;2075;51.062;6.920;2022-12-01T12:55:02;53.75;;;24.95;;
4122;SDS011;2075;51.062;6.920;2022-12-01T12:57:56;54.03;;;22.20;;
4122;SDS011;2075;51.062;6.920;2022-12-01T13:00:48;56.97;;;21.00;;
4122;SDS011;2075;51.062;6.920;2022-12-01T13:03:38;57.73;;;24.00;;
4122;SDS011;2075;51.062;6.920;2022-12-01T13:06:33;56.30;;;24.67;;
4122;SDS011;2075;51.062;6.920;2022-12-01T13:09:24;61.80;;;24.50;;
4122;SDS011;2075;51.062;6.920;2022-12-01T13:12:15;54.20;;;22.77;;
4122;SDS011;2075;51.062;6.920;2022-12-01T13:15:13;58.83;;;24.67;;
4122;SDS011;2075;51.062;6.920;2022-12-01T13:18:00;62.33;;;23.30;;
4122;SDS011;2075;51.062;6.920;2022-12-01T13:20:56;61.83;;;24.90;;
4122;SDS011;2075;51.062;6.920;2022-12-01T13:23:44;56.13;;;21.10;;
4122;SDS011;2075;51.062;6.920;2022-12-01T13:26:33;63.37;;;25.90;;
4122;SDS011;2075;51.062;6.920;2022-12-01T13:29:20;58.43;;;23.70;;
4122;SDS011;2075;51.062;6.920;2022-12-01T13:32:20;56.73;;;23.67;;
4122;SDS011;2075;51.062;6.920;2022-12-01T13:35:19;73.20;;;26.90;;
4122;SDS011;2075;51.062;6.920;2022-12-01T13:38:20;61.47;;;26.40;;
4122;SDS011;2075;51.062;6.920;2022-12-01T13:41:19;58.23;;;23.50;;
4122;SDS011;2075;51.062;6.920;2022-12-01T13:44:18;58.40;;;24.00;;
4122;SDS011;2075;51.062;6.920;2022-12-01T13:50:36;58.33;;;22.13;;
4122;SDS011;2075;51.062;6.920;2022-12-01T13:53:37;60.53;;;24.07;;
4122;SDS011;2075;51.062;6.920;2022-12-01T13:56:43;53.97;;;21.97;;
4122;SDS011;2075;51.062;6.920;2022-12-01T13:59:43;44.80;;;20.20;;
4122;SDS011;2075;51.062;6.920;2022-12-01T14:06:24;53.17;;;22.77;;
4122;SDS011;2075;51.062;6.920;2022-12-01T14:09:13;76.43;;;23.50;;
4122;SDS011;2075;51.062;6.920;2022-12-01T14:12:13;50.93;;;22.47;;
4122;SDS011;2075;51.062;6.920;2022-12-01T14:15:03;53.70;;;22.33;;
4122;SDS011;2075;51.062;6.920;2022-12-01T14:18:06;49.70;;;22.30;;
4122;SDS011;2075;51.062;6.920;2022-12-01T14:21:04;55.93;;;21.60;;
4122;SDS011;2075;51.062;6.920;2022-12-01T14:23:58;57.40;;;22.40;;
4122;SDS011;2075;51.062;6.920;2022-12-01T14:26:47;55.80;;;23.20;;
4122;SDS011;2075;51.062;6.920;2022-12-01T14:29:35;53.23;;;22.23;;
4122;SDS011;2075;51.062;6.920;2022-12-01T14:32:23;51.80;;;23.80;;
4122;SDS011;2075;51.062;6.920;2022-12-01T14:35:10;46.27;;;21.43;;
4122;SDS011;2075;51.062;6.920;2022-12-01T14:37:57;53.53;;;23.50;;
4122;SDS011;2075;51.062;6.920;2022-12-01T14:40:44;61.80;;;23.40;;
4122;SDS011;2075;51.062;6.920;2022-12-01T14:43:29;53.97;;;25.07;;
4122;SDS011;2075;51.062;6.920;2022-12-01T14:46:42;49.70;;;22.77;;
4122;SDS011;2075;51.062;6.920;2022-12-01T14:49:33;55.87;;;24.33;;
4122;SDS011;2075;51.062;6.920;2022-12-01T14:52:34;58.10;;;24.60;;
4122;SDS011;2075;51.062;6.920;2022-12-01T14:55:24;59.93;;;25.97;;
4122;SDS011;2075;51.062;6.920;2022-12-01T14:58:13;63.40;;;26.43;;
4122;SDS011;2075;51.062;6.920;2022-12-01T15:01:03;66.43;;;26.47;;
4122;SDS011;2075;51.062;6.920;2022-12-01T15:03:55;68.97;;;28.00;;
4122;SDS011;2075;51.062;6.920;2022-12-01T15:06:41;68.17;;;27.43;;
4122;SDS011;2075;51.062;6.920;2022-12-01T15:09:28;52.07;;;24.53;;
4122;SDS011;2075;51.062;6.920;2022-12-01T15:12:22;67.83;;;28.23;;
4122;SDS011;2075;51.062;6.920;2022-12-01T15:15:15;66.17;;;27.27;;
4122;SDS011;2075;51.062;6.920;2022-12-01T15:18:02;67.37;;;27.13;;
4122;SDS011;2075;51.062;6.920;2022-12-01T15:21:08;70.40;;;29.70;;
4122;SDS011;2075;51.062;6.920;2022-12-01T15:23:57;69.37;;;27.37;;
4122;SDS011;2075;51.062;6.920;2022-12-01T15:26:45;64.43;;;26.97;;
4122;SDS011;2075;51.062;6.920;2022-12-01T15:29:32;67.43;;;29.27;;
4122;SDS011;2075;51.062;6.920;2022-12-01T15:32:28;76.87;;;29.93;;
4122;SDS011;2075;51.062;6.920;2022-12-01T15:35:17;67.50;;;29.47;;
4122;SDS011;2075;51.062;6.920;2022-12-01T15:38:09;71.57;;;28.57;;
4122;SDS011;2075;51.062;6.920;2022-12-01T15:41:01;73.23;;;29.63;;
4122;SDS011;2075;51.062;6.920;2022-12-01T15:43:53;73.38;;;35.13;;
4122;SDS011;2075;51.062;6.920;2022-12-01T15:46:40;73.30;;;29.97;;
4122;SDS011;2075;51.062;6.920;2022-12-01T15:49:27;70.03;;;28.47;;
4122;SDS011;2075;51.062;6.920;2022-12-01T15:52:15;63.60;;;30.10;;
4122;SDS011;2075;51.062;6.920;2022-12-01T15:55:03;77.80;;;31.90;;
4122;SDS011;2075;51.062;6.920;2022-12-01T15:57:49;68.67;;;26.90;;
4122;SDS011;2075;51.062;6.920;2022-12-01T16:00:34;69.40;;;28.87;;
4122;SDS011;2075;51.062;6.920;2022-12-01T16:03:20;91.27;;;36.93;;
4122;SDS011;2075;51.062;6.920;2022-12-01T16:06:09;73.80;;;30.13;;
4122;SDS011;2075;51.062;6.920;2022-12-01T16:08:57;74.10;;;29.80;;
4122;SDS011;2075;51.062;6.920;2022-12-01T16:15:13;68.47;;;31.10;;
4122;SDS011;2075;51.062;6.920;2022-12-01T16:18:15;74.00;;;32.17;;
4122;SDS011;2075;51.062;6.920;2022-12-01T16:21:10;69.37;;;30.17;;
4122;SDS011;2075;51.062;6.920;2022-12-01T16:23:57;70.50;;;32.77;;
4122;SDS011;2075;51.062;6.920;2022-12-01T16:26:45;72.17;;;29.80;;
4122;SDS011;2075;51.062;6.920;2022-12-01T16:29:34;72.87;;;28.70;;
4122;SDS011;2075;51.062;6.920;2022-12-01T16:32:32;70.53;;;30.33;;
4122;SDS011;2075;51.062;6.920;2022-12-01T16:35:22;75.40;;;31.23;;
4122;SDS011;2075;51.062;6.920;2022-12-01T16:38:11;72.40;;;30.83;;
4122;SDS011;2075;51.062;6.920;2022-12-01T16:40:59;67.00;;;30.23;;
4122;SDS011;2075;51.062;6.920;2022-12-01T16:43:46;62.77;;;28.37;;
4122;SDS011;2075;51.062;6.920;2022-12-01T16:46:33;69.10;;;28.43;;
4122;SDS011;2075;51.062;6.920;2022-12-01T16:49:19;62.10;;;28.87;;
4122;SDS011;2075;51.062;6.920;2022-12-01T16:52:05;72.10;;;28.03;;
4122;SDS011;2075;51.062;6.920;2022-12-01T16:54:50;62.77;;;28.50;;
4122;SDS011;2075;51.062;6.920;2022-12-01T16:57:36;61.67;;;27.27;;
4122;SDS011;2075;51.062;6.920;2022-12-01T17:00:21;60.63;;;28.10;;
4122;SDS011;2075;51.062;6.920;2022-12-01T17:03:10;74.57;;;33.00;;
4122;SDS011;2075;51.062;6.920;2022-12-01T17:05:57;102.13;;;40.67;;
4122;SDS011;2075;51.062;6.920;2022-12-01T17:08:43;85.60;;;34.07;;
4122;SDS011;2075;51.062;6.920;2022-12-01T17:11:29;71.87;;;27.13;;
4122;SDS011;2075;51.062;6.920;2022-12-01T17:14:14;86.73;;;32.67;;
4122;SDS011;2075;51.062;6.920;2022-12-01T17:17:00;64.63;;;29.33;;
4122;SDS011;2075;51.062;6.920;2022-12-01T17:19:47;81.53;;;32.80;;
4122;SDS011;2075;51.062;6.920;2022-12-01T17:22:32;69.23;;;30.37;;
4122;SDS011;2075;51.062;6.920;2022-12-01T17:25:18;72.27;;;29.37;;